createdAt,value
2022-08-27T00:01:25.801Z,11.20
2022-08-27T00:03:29.039Z,10.97
2022-08-27T00:05:32.472Z,11.00
2022-08-27T00:07:35.662Z,10.27
2022-08-27T00:09:41.514Z,10.53
2022-08-27T00:11:46.502Z,10.30
2022-08-27T00:13:50.646Z,12.00
2022-08-27T00:15:54.857Z,11.50
2022-08-27T00:17:58.250Z,10.90
2022-08-27T00:20:02.063Z,10.40
2022-08-27T00:22:06.092Z,9.40
2022-08-27T00:24:10.150Z,10.80
2022-08-27T00:26:15.930Z,11.80
2022-08-27T00:28:19.190Z,10.63
2022-08-27T00:30:24.217Z,11.13
2022-08-27T00:32:27.535Z,10.50
2022-08-27T00:34:31.481Z,10.30
2022-08-27T00:36:35.040Z,9.97
2022-08-27T00:38:39.888Z,11.13
2022-08-27T00:40:44.126Z,11.60
2022-08-27T00:42:48.842Z,11.67
2022-08-27T00:44:52.446Z,11.97
2022-08-27T00:47:01.138Z,10.80
2022-08-27T00:49:10.413Z,12.30
2022-08-27T00:51:13.934Z,11.20
2022-08-27T00:53:22.646Z,10.90
2022-08-27T00:55:28.773Z,11.90
2022-08-27T00:57:32.480Z,11.50
2022-08-27T00:59:37.542Z,11.53
2022-08-27T01:02:01.072Z,11.90
2022-08-27T01:04:06.428Z,11.83
2022-08-27T01:06:15.994Z,12.57
2022-08-27T01:08:23.492Z,12.00
2022-08-27T01:10:29.523Z,10.93
2022-08-27T01:12:35.010Z,13.07
2022-08-27T01:14:41.229Z,10.70
2022-08-27T01:16:51.606Z,12.40
2022-08-27T01:18:55.613Z,11.57
2022-08-27T01:21:05.277Z,11.00
2022-08-27T01:23:15.505Z,12.80
2022-08-27T01:25:21.356Z,12.90
2022-08-27T01:27:28.424Z,12.23
2022-08-27T01:29:32.338Z,13.83
2022-08-27T01:31:35.876Z,10.60
2022-08-27T01:33:40.258Z,11.87
2022-08-27T01:35:45.152Z,10.93
2022-08-27T01:37:52.430Z,12.37
2022-08-27T01:39:58.970Z,10.67
2022-08-27T01:42:08.941Z,11.73
2022-08-27T01:44:12.217Z,11.50
2022-08-27T01:46:15.788Z,11.90
2022-08-27T01:48:21.151Z,10.90
2022-08-27T01:50:27.518Z,9.93
2022-08-27T01:52:32.893Z,11.40
2022-08-27T01:54:36.644Z,11.50
2022-08-27T01:56:40.090Z,11.13
2022-08-27T01:58:45.071Z,11.80
2022-08-27T02:00:56.250Z,11.40
2022-08-27T02:03:01.321Z,11.30
2022-08-27T02:05:04.897Z,12.10
2022-08-27T02:07:08.468Z,11.90
2022-08-27T02:09:11.993Z,11.17
2022-08-27T02:11:17.950Z,9.87
2022-08-27T02:13:21.485Z,12.47
2022-08-27T02:15:27.313Z,10.70
2022-08-27T02:17:30.788Z,11.10
2022-08-27T02:19:34.560Z,11.57
2022-08-27T02:21:38.686Z,11.73
2022-08-27T02:23:42.644Z,11.23
2022-08-27T02:25:47.314Z,11.77
2022-08-27T02:27:51.663Z,11.20
2022-08-27T02:29:55.498Z,11.60
2022-08-27T02:32:01.581Z,9.47
2022-08-27T02:34:04.959Z,10.27
2022-08-27T02:36:09.463Z,10.07
2022-08-27T02:38:14.022Z,11.27
2022-08-27T02:40:19.902Z,10.17
2022-08-27T02:42:23.447Z,10.83
2022-08-27T02:44:26.920Z,11.83
2022-08-27T02:46:30.371Z,10.30
2022-08-27T02:48:37.535Z,10.20
2022-08-27T02:50:40.852Z,10.80
2022-08-27T02:52:46.607Z,11.13
2022-08-27T02:54:49.994Z,10.13
2022-08-27T02:56:55.723Z,9.07
2022-08-27T02:58:59.863Z,11.20
2022-08-27T03:01:03.873Z,10.97
2022-08-27T03:03:07.100Z,9.67
2022-08-27T03:05:13.875Z,11.13
2022-08-27T03:07:19.027Z,10.90
2022-08-27T03:09:22.511Z,11.50
2022-08-27T03:11:27.005Z,10.20
2022-08-27T03:13:30.269Z,10.60
2022-08-27T03:15:33.806Z,11.23
2022-08-27T03:17:54.889Z,10.37
2022-08-27T03:19:58.303Z,11.20
2022-08-27T03:22:03.274Z,10.50
2022-08-27T03:24:11.517Z,10.13
2022-08-27T03:26:15.857Z,10.13
2022-08-27T03:28:22.572Z,10.93
2022-08-27T03:30:27.510Z,11.40
2022-08-27T03:32:31.578Z,9.03
2022-08-27T03:34:35.137Z,11.13
2022-08-27T03:36:38.357Z,11.83
2022-08-27T03:38:43.054Z,10.90
2022-08-27T03:40:46.328Z,11.00
2022-08-27T03:42:50.034Z,10.60
2022-08-27T03:44:53.733Z,10.30
2022-08-27T03:46:56.970Z,10.37
2022-08-27T03:49:00.483Z,11.90
2022-08-27T03:51:08.620Z,9.70
2022-08-27T03:53:12.574Z,11.13
2022-08-27T03:55:17.470Z,11.97
2022-08-27T03:57:20.799Z,11.47
2022-08-27T03:59:24.201Z,10.60
2022-08-27T04:01:27.953Z,10.60
2022-08-27T04:03:31.221Z,10.60
2022-08-27T04:05:35.021Z,10.50
2022-08-27T04:07:39.054Z,10.83
2022-08-27T04:09:42.650Z,10.97
2022-08-27T04:11:47.206Z,11.57
2022-08-27T04:13:51.052Z,10.93
2022-08-27T04:15:56.666Z,10.67
2022-08-27T04:17:59.957Z,11.00
2022-08-27T04:20:24.961Z,10.10
2022-08-27T04:22:28.094Z,10.27
2022-08-27T04:24:33.896Z,10.90
2022-08-27T04:26:37.439Z,10.10
2022-08-27T04:28:42.597Z,10.33
2022-08-27T04:30:52.828Z,10.70
2022-08-27T04:32:55.991Z,11.87
2022-08-27T04:35:01.193Z,9.70
2022-08-27T04:37:05.457Z,10.90
2022-08-27T04:39:09.175Z,9.90
2022-08-27T04:41:21.709Z,9.97
2022-08-27T04:43:25.134Z,10.17
2022-08-27T04:45:29.770Z,10.60
2022-08-27T04:47:33.245Z,10.10
2022-08-27T04:49:37.799Z,9.83
2022-08-27T04:51:41.615Z,9.87
2022-08-27T04:53:45.564Z,11.20
2022-08-27T04:55:50.635Z,10.00
2022-08-27T04:57:54.284Z,11.10
2022-08-27T04:59:58.006Z,11.40
2022-08-27T05:02:04.876Z,11.40
2022-08-27T05:04:09.041Z,10.43
2022-08-27T05:06:12.918Z,10.00
2022-08-27T05:08:17.390Z,10.17
2022-08-27T05:10:20.822Z,10.33
2022-08-27T05:12:24.023Z,9.90
2022-08-27T05:14:30.212Z,9.90
2022-08-27T05:16:36.525Z,10.33
2022-08-27T05:18:48.380Z,10.80
2022-08-27T05:20:52.405Z,9.70
2022-08-27T05:22:56.125Z,10.17
2022-08-27T05:24:59.758Z,10.60
2022-08-27T05:27:03.430Z,11.30
2022-08-27T05:29:07.462Z,9.47
2022-08-27T05:31:13.801Z,10.97
2022-08-27T05:33:20.376Z,11.57
2022-08-27T05:35:25.245Z,10.47
2022-08-27T05:37:28.508Z,10.27
2022-08-27T05:39:32.003Z,9.73
2022-08-27T05:41:36.574Z,9.57
2022-08-27T05:43:41.411Z,10.00
2022-08-27T05:45:47.041Z,9.30
2022-08-27T05:47:50.665Z,9.40
2022-08-27T05:49:54.639Z,8.93
2022-08-27T05:51:59.451Z,9.30
2022-08-27T05:54:08.624Z,9.57
2022-08-27T05:56:16.486Z,9.93
2022-08-27T05:58:37.389Z,9.30
2022-08-27T06:01:02.214Z,10.70
2022-08-27T06:03:07.834Z,8.80
2022-08-27T06:05:11.974Z,8.80
2022-08-27T06:07:16.977Z,9.40
2022-08-27T06:09:23.379Z,8.70
2022-08-27T06:11:26.788Z,10.10
2022-08-27T06:13:31.307Z,9.67
2022-08-27T06:15:34.570Z,8.93
2022-08-27T06:17:38.055Z,9.00
2022-08-27T06:19:42.482Z,8.53
2022-08-27T06:21:46.620Z,9.13
2022-08-27T06:24:07.390Z,8.23
2022-08-27T06:26:11.939Z,7.77
2022-08-27T06:28:15.266Z,10.27
2022-08-27T06:30:18.702Z,9.70
2022-08-27T06:32:24.037Z,7.97
2022-08-27T06:34:27.280Z,8.30
2022-08-27T06:36:31.614Z,9.00
2022-08-27T06:38:35.674Z,8.27
2022-08-27T06:40:43.395Z,8.30
2022-08-27T06:42:46.599Z,8.27
2022-08-27T06:44:49.998Z,7.67
2022-08-27T06:46:53.688Z,7.90
2022-08-27T06:48:58.444Z,8.30
2022-08-27T06:51:02.328Z,8.70
2022-08-27T06:53:05.809Z,8.83
2022-08-27T06:55:11.315Z,8.43
2022-08-27T06:57:16.038Z,8.43
2022-08-27T06:59:20.823Z,7.00
2022-08-27T07:01:28.295Z,7.70
2022-08-27T07:03:34.022Z,8.30
2022-08-27T07:05:39.687Z,7.20
2022-08-27T07:07:46.712Z,7.57
2022-08-27T07:09:52.163Z,7.27
2022-08-27T07:11:55.760Z,7.30
2022-08-27T07:14:01.635Z,7.20
2022-08-27T07:16:07.109Z,6.80
2022-08-27T07:18:10.612Z,7.63
2022-08-27T07:20:16.628Z,6.03
2022-08-27T07:22:20.300Z,6.60
2022-08-27T07:24:24.529Z,7.60
2022-08-27T07:26:28.654Z,6.50
2022-08-27T07:28:32.242Z,6.50
2022-08-27T07:30:40.670Z,6.77
2022-08-27T07:32:44.163Z,6.67
2022-08-27T07:34:47.640Z,6.60
2022-08-27T07:36:52.374Z,6.10
2022-08-27T07:39:01.283Z,6.33
2022-08-27T07:41:06.546Z,6.40
2022-08-27T07:43:28.261Z,7.20
2022-08-27T07:45:32.100Z,5.53
2022-08-27T07:47:37.090Z,6.40
2022-08-27T07:49:40.320Z,7.27
2022-08-27T07:51:43.855Z,6.13
2022-08-27T07:53:48.069Z,5.67
2022-08-27T07:55:51.569Z,5.97
2022-08-27T07:57:55.629Z,5.77
2022-08-27T07:59:59.125Z,6.40
2022-08-27T08:02:02.387Z,6.50
2022-08-27T08:04:10.568Z,5.07
2022-08-27T08:06:17.106Z,5.63
2022-08-27T08:08:20.869Z,5.13
2022-08-27T08:10:25.939Z,5.80
2022-08-27T08:12:29.411Z,4.90
2022-08-27T08:14:33.374Z,5.30
2022-08-27T08:16:37.406Z,6.10
2022-08-27T08:18:41.207Z,6.47
2022-08-27T08:20:57.946Z,5.63
2022-08-27T08:23:03.038Z,6.73
2022-08-27T08:25:07.224Z,6.10
2022-08-27T08:27:15.563Z,5.77
2022-08-27T08:29:19.457Z,5.63
2022-08-27T08:31:24.356Z,5.70
2022-08-27T08:33:30.002Z,5.83
2022-08-27T08:35:40.442Z,5.43
2022-08-27T08:37:46.730Z,5.70
2022-08-27T08:39:49.981Z,4.77
2022-08-27T08:41:55.870Z,5.70
2022-08-27T08:44:05.302Z,4.87
2022-08-27T08:46:12.083Z,6.60
2022-08-27T08:48:20.748Z,4.63
2022-08-27T08:50:29.565Z,5.07
2022-08-27T08:52:44.152Z,4.20
2022-08-27T08:54:49.897Z,4.60
2022-08-27T08:57:00.513Z,5.20
2022-08-27T08:59:08.948Z,5.00
2022-08-27T09:01:17.571Z,5.10
2022-08-27T09:03:21.366Z,7.57
2022-08-27T09:05:27.567Z,5.07
2022-08-27T09:07:37.388Z,6.60
2022-08-27T09:09:53.752Z,5.40
2022-08-27T09:12:00.922Z,5.50
2022-08-27T09:14:13.232Z,4.90
2022-08-27T09:16:17.130Z,4.63
2022-08-27T09:18:20.533Z,4.17
2022-08-27T09:20:25.680Z,4.57
2022-08-27T09:22:47.190Z,3.97
2022-08-27T09:25:03.419Z,4.80
2022-08-27T09:27:07.316Z,4.40
2022-08-27T09:29:19.750Z,4.40
2022-08-27T09:31:23.159Z,5.03
2022-08-27T09:33:26.716Z,5.10
2022-08-27T09:35:48.943Z,4.40
2022-08-27T09:37:54.836Z,4.70
2022-08-27T09:40:06.278Z,4.77
2022-08-27T09:42:37.697Z,5.27
2022-08-27T09:44:53.434Z,4.27
2022-08-27T09:46:59.406Z,5.30
2022-08-27T09:49:12.689Z,4.63
2022-08-27T09:51:21.762Z,4.60
2022-08-27T09:53:28.403Z,4.10
2022-08-27T09:55:40.593Z,4.93
2022-08-27T09:57:44.345Z,5.33
2022-08-27T09:59:54.393Z,4.37
2022-08-27T10:02:06.607Z,4.80
2022-08-27T10:04:18.239Z,5.30
2022-08-27T10:06:29.712Z,4.70
2022-08-27T10:08:39.966Z,4.90
2022-08-27T10:10:55.846Z,4.30
2022-08-27T10:13:10.279Z,5.57
2022-08-27T10:15:16.126Z,5.70
2022-08-27T10:17:28.384Z,7.10
2022-08-27T10:19:53.793Z,6.00
2022-08-27T10:22:05.425Z,5.80
2022-08-27T10:24:22.533Z,6.63
2022-08-27T10:26:33.837Z,7.47
2022-08-27T10:28:54.611Z,7.10
2022-08-27T10:31:11.592Z,6.27
2022-08-27T10:33:23.550Z,6.37
2022-08-27T10:35:33.417Z,6.47
2022-08-27T10:37:44.493Z,6.20
2022-08-27T10:40:00.807Z,6.20
2022-08-27T10:42:15.951Z,6.53
2022-08-27T10:44:44.684Z,6.43
2022-08-27T10:47:00.793Z,5.83
2022-08-27T10:49:18.346Z,7.43
2022-08-27T10:51:31.131Z,6.40
2022-08-27T10:53:43.416Z,6.77
2022-08-27T10:55:52.450Z,6.03
2022-08-27T10:58:08.273Z,5.50
2022-08-27T11:00:16.451Z,6.50
2022-08-27T11:02:29.299Z,6.20
2022-08-27T11:04:37.574Z,7.80
2022-08-27T11:06:45.762Z,6.57
2022-08-27T11:08:55.215Z,6.40
2022-08-27T11:11:25.997Z,7.20
2022-08-27T11:13:35.588Z,6.90
2022-08-27T11:15:43.974Z,7.07
2022-08-27T11:17:54.953Z,6.50
2022-08-27T11:20:03.403Z,6.80
2022-08-27T11:22:12.164Z,6.03
2022-08-27T11:24:26.082Z,6.13
2022-08-27T11:26:33.337Z,5.90
2022-08-27T11:28:42.597Z,5.20
2022-08-27T11:30:59.027Z,5.63
2022-08-27T11:33:05.764Z,5.73
2022-08-27T11:35:22.706Z,5.27
2022-08-27T11:38:02.365Z,6.67
2022-08-27T11:40:37.922Z,5.00
2022-08-27T11:42:48.421Z,5.47
2022-08-27T11:44:59.489Z,6.07
2022-08-27T11:47:13.357Z,5.47
2022-08-27T11:49:27.631Z,4.30
2022-08-27T11:51:34.484Z,4.90
2022-08-27T11:53:52.109Z,5.40
2022-08-27T11:55:58.542Z,4.37
2022-08-27T11:58:07.287Z,4.67
2022-08-27T12:00:20.188Z,5.30
2022-08-27T12:02:26.149Z,6.43
2022-08-27T12:04:50.848Z,5.20
2022-08-27T12:06:56.596Z,7.37
2022-08-27T12:09:08.121Z,6.00
2022-08-27T12:11:31.957Z,5.10
2022-08-27T12:13:42.835Z,4.87
2022-08-27T12:15:54.511Z,4.57
2022-08-27T12:18:02.246Z,4.70
2022-08-27T12:20:11.417Z,4.20
2022-08-27T12:22:21.309Z,5.27
2022-08-27T12:24:44.058Z,5.43
2022-08-27T12:26:58.871Z,5.60
2022-08-27T12:29:39.390Z,6.40
2022-08-27T12:31:50.308Z,5.43
2022-08-27T12:33:55.201Z,5.67
2022-08-27T12:35:59.660Z,5.60
2022-08-27T12:38:09.280Z,5.67
2022-08-27T12:40:20.578Z,4.70
2022-08-27T12:42:26.814Z,5.77
2022-08-27T12:44:31.475Z,6.00
2022-08-27T12:46:35.706Z,5.00
2022-08-27T12:48:45.798Z,6.03
2022-08-27T12:50:53.594Z,5.10
2022-08-27T12:53:14.008Z,5.20
2022-08-27T12:55:28.782Z,4.97
2022-08-27T12:57:35.028Z,5.10
2022-08-27T12:59:46.420Z,5.50
2022-08-27T13:01:57.725Z,4.70
2022-08-27T13:04:06.009Z,4.27
2022-08-27T13:06:20.732Z,4.30
2022-08-27T13:08:28.316Z,5.30
2022-08-27T13:10:32.944Z,6.03
2022-08-27T13:12:36.748Z,6.50
2022-08-27T13:14:41.472Z,5.10
2022-08-27T13:16:51.465Z,5.30
2022-08-27T13:18:55.626Z,5.90
2022-08-27T13:21:06.006Z,5.87
2022-08-27T13:23:18.537Z,6.50
2022-08-27T13:25:28.842Z,7.23
2022-08-27T13:27:37.049Z,6.27
2022-08-27T13:29:41.520Z,6.93
2022-08-27T13:31:45.178Z,6.83
2022-08-27T13:33:49.400Z,5.30
2022-08-27T13:35:53.026Z,6.57
2022-08-27T13:37:58.895Z,5.83
2022-08-27T13:40:02.594Z,7.77
2022-08-27T13:42:09.238Z,6.97
2022-08-27T13:44:16.762Z,7.50
2022-08-27T13:46:22.852Z,7.03
2022-08-27T13:48:26.822Z,7.73
2022-08-27T13:50:32.846Z,6.00
2022-08-27T13:52:59.434Z,5.40
2022-08-27T13:55:08.058Z,5.83
2022-08-27T13:57:13.642Z,6.43
2022-08-27T13:59:25.877Z,4.90
2022-08-27T14:01:33.002Z,5.50
2022-08-27T14:03:39.138Z,5.67
2022-08-27T14:05:49.326Z,4.53
2022-08-27T14:07:55.196Z,4.50
2022-08-27T14:10:04.094Z,5.17
2022-08-27T14:12:11.569Z,5.83
2022-08-27T14:14:17.084Z,5.17
2022-08-27T14:16:26.660Z,7.03
2022-08-27T14:18:55.444Z,7.40
2022-08-27T14:20:57.330Z,6.10
2022-08-27T14:23:00.884Z,7.50
2022-08-27T14:25:04.554Z,7.33
2022-08-27T14:27:14.403Z,7.37
2022-08-27T14:29:17.929Z,9.40
2022-08-27T14:31:21.406Z,9.17
2022-08-27T14:33:25.173Z,6.00
2022-08-27T14:35:29.153Z,5.40
2022-08-27T14:37:32.712Z,5.00
2022-08-27T14:39:36.365Z,6.77
2022-08-27T14:41:39.681Z,7.80
2022-08-27T14:43:49.033Z,5.00
2022-08-27T14:45:55.172Z,7.50
2022-08-27T14:48:15.860Z,9.03
2022-08-27T14:50:21.990Z,8.60
2022-08-27T14:52:25.402Z,8.47
2022-08-27T14:54:33.637Z,8.90
2022-08-27T14:56:37.170Z,7.87
2022-08-27T14:58:40.384Z,9.87
2022-08-27T15:00:46.023Z,8.60
2022-08-27T15:02:50.082Z,9.17
2022-08-27T15:04:53.369Z,7.90
2022-08-27T15:06:57.135Z,8.30
2022-08-27T15:09:00.669Z,8.20
2022-08-27T15:11:05.371Z,7.87
2022-08-27T15:13:11.218Z,8.40
2022-08-27T15:15:15.679Z,8.90
2022-08-27T15:17:33.433Z,7.80
2022-08-27T15:19:38.587Z,7.57
2022-08-27T15:21:42.957Z,8.27
2022-08-27T15:23:49.586Z,7.80
2022-08-27T15:25:53.198Z,7.60
2022-08-27T15:27:56.532Z,6.23
2022-08-27T15:30:01.204Z,6.47
2022-08-27T15:32:05.310Z,7.50
2022-08-27T15:34:10.479Z,6.20
2022-08-27T15:36:14.041Z,6.13
2022-08-27T15:38:17.279Z,4.93
2022-08-27T15:40:21.957Z,6.50
2022-08-27T15:42:26.026Z,6.17
2022-08-27T15:44:29.704Z,6.57
2022-08-27T15:46:33.602Z,6.83
2022-08-27T15:48:37.398Z,6.00
2022-08-27T15:50:43.371Z,5.97
2022-08-27T15:52:47.911Z,5.53
2022-08-27T15:54:51.673Z,5.43
2022-08-27T15:56:55.129Z,6.20
2022-08-27T15:58:58.519Z,5.70
2022-08-27T16:01:07.600Z,6.57
2022-08-27T16:03:13.557Z,6.03
2022-08-27T16:05:20.545Z,5.27
2022-08-27T16:07:25.456Z,6.33
2022-08-27T16:09:29.000Z,5.10
2022-08-27T16:11:32.746Z,5.60
2022-08-27T16:13:38.089Z,6.20
2022-08-27T16:15:41.872Z,6.63
2022-08-27T16:17:46.011Z,6.50
2022-08-27T16:19:49.501Z,7.10
2022-08-27T16:21:53.521Z,7.73
2022-08-27T16:23:58.436Z,6.03
2022-08-27T16:26:02.978Z,6.97
2022-08-27T16:28:06.667Z,7.07
2022-08-27T16:30:11.108Z,7.17
2022-08-27T16:32:19.049Z,6.90
2022-08-27T16:34:26.476Z,5.90
2022-08-27T16:36:30.609Z,7.10
2022-08-27T16:38:34.105Z,7.53
2022-08-27T16:40:42.422Z,6.30
2022-08-27T16:42:51.276Z,6.90
2022-08-27T16:44:54.522Z,6.90
2022-08-27T16:46:57.805Z,7.40
2022-08-27T16:49:17.567Z,8.10
2022-08-27T16:51:24.460Z,7.47
2022-08-27T16:53:27.705Z,8.27
2022-08-27T16:55:31.090Z,8.77
2022-08-27T16:57:35.646Z,8.43
2022-08-27T16:59:38.816Z,8.33
2022-08-27T17:01:43.135Z,7.57
2022-08-27T17:06:14.351Z,9.13
2022-08-27T17:08:18.482Z,9.07
2022-08-27T17:10:21.997Z,7.37
2022-08-27T17:12:25.521Z,7.57
2022-08-27T17:14:34.927Z,8.07
2022-08-27T17:16:40.033Z,7.70
2022-08-27T17:18:44.461Z,8.37
2022-08-27T17:20:48.028Z,7.73
2022-08-27T17:22:51.383Z,7.80
2022-08-27T17:24:54.775Z,8.37
2022-08-27T17:26:58.246Z,8.33
2022-08-27T17:29:01.972Z,8.53
2022-08-27T17:31:07.321Z,10.40
2022-08-27T17:33:13.061Z,9.70
2022-08-27T17:35:17.348Z,8.57
2022-08-27T17:37:20.590Z,7.83
2022-08-27T17:39:24.190Z,8.20
2022-08-27T17:41:33.677Z,7.70
2022-08-27T17:43:37.791Z,7.97
2022-08-27T17:45:41.208Z,8.50
2022-08-27T17:50:27.175Z,9.85
2022-08-27T17:52:31.308Z,8.70
2022-08-27T17:54:38.465Z,8.00
2022-08-27T17:56:43.890Z,8.17
2022-08-27T17:58:47.589Z,7.93
2022-08-27T18:00:51.221Z,7.93
2022-08-27T18:02:56.012Z,7.67
2022-08-27T18:04:59.501Z,8.43
2022-08-27T18:07:02.917Z,8.30
2022-08-27T18:09:08.163Z,8.13
2022-08-27T18:11:12.929Z,8.63
2022-08-27T18:13:16.163Z,9.40
2022-08-27T18:15:21.841Z,7.73
2022-08-27T18:17:25.303Z,9.00
2022-08-27T18:19:30.082Z,7.67
2022-08-27T18:21:33.424Z,7.57
2022-08-27T18:23:37.923Z,7.47
2022-08-27T18:25:42.545Z,8.80
2022-08-27T18:27:47.499Z,7.60
2022-08-27T18:29:50.946Z,8.27
2022-08-27T18:31:59.831Z,7.40
2022-08-27T18:34:04.512Z,7.20
2022-08-27T18:36:09.773Z,6.87
2022-08-27T18:38:13.437Z,8.67
2022-08-27T18:40:19.427Z,8.43
2022-08-27T18:42:22.793Z,7.53
2022-08-27T18:44:26.221Z,8.60
2022-08-27T18:46:29.670Z,7.60
2022-08-27T18:48:34.107Z,7.90
2022-08-27T18:50:39.317Z,7.67
2022-08-27T18:52:46.997Z,6.77
2022-08-27T18:54:50.684Z,8.57
2022-08-27T18:56:53.935Z,7.37
2022-08-27T18:58:58.132Z,6.50
2022-08-27T19:01:04.342Z,7.30
2022-08-27T19:03:08.001Z,7.37
2022-08-27T19:05:13.664Z,7.83
2022-08-27T19:07:17.124Z,7.60
2022-08-27T19:09:22.153Z,8.23
2022-08-27T19:11:25.722Z,8.23
2022-08-27T19:13:29.227Z,7.67
2022-08-27T19:15:32.473Z,7.93
2022-08-27T19:17:37.032Z,10.03
2022-08-27T19:19:41.220Z,9.70
2022-08-27T19:21:49.270Z,7.87
2022-08-27T19:23:54.601Z,7.60
2022-08-27T19:26:02.498Z,8.60
2022-08-27T19:28:05.963Z,8.50
2022-08-27T19:30:10.585Z,9.00
2022-08-27T19:32:13.984Z,9.73
2022-08-27T19:34:17.896Z,9.00
2022-08-27T19:36:23.264Z,8.50
2022-08-27T19:38:31.858Z,10.37
2022-08-27T19:40:35.665Z,9.07
2022-08-27T19:42:40.411Z,8.80
2022-08-27T19:44:45.562Z,8.00
2022-08-27T19:46:52.617Z,8.90
2022-08-27T19:48:58.100Z,9.13
2022-08-27T19:51:01.902Z,9.60
2022-08-27T19:53:07.321Z,9.47
2022-08-27T19:55:14.094Z,8.73
2022-08-27T19:57:18.721Z,8.67
2022-08-27T19:59:23.620Z,7.90
2022-08-27T20:01:27.163Z,8.00
2022-08-27T20:03:30.414Z,8.67
2022-08-27T20:05:34.584Z,8.80
2022-08-27T20:07:38.141Z,8.83
2022-08-27T20:09:42.460Z,8.80
2022-08-27T20:11:47.586Z,10.27
2022-08-27T20:13:52.308Z,8.90
2022-08-27T20:15:57.339Z,9.07
2022-08-27T20:18:01.932Z,9.00
2022-08-27T20:20:06.864Z,9.53
2022-08-27T20:22:11.233Z,9.73
2022-08-27T20:24:15.691Z,8.00
2022-08-27T20:26:19.011Z,8.97
2022-08-27T20:28:38.857Z,9.23
2022-08-27T20:30:43.207Z,8.97
2022-08-27T20:32:53.559Z,8.50
2022-08-27T20:35:03.858Z,8.77
2022-08-27T20:37:07.686Z,9.07
2022-08-27T20:39:10.952Z,9.10
2022-08-27T20:41:14.527Z,9.33
2022-08-27T20:43:18.840Z,10.40
2022-08-27T20:45:22.384Z,10.07
2022-08-27T20:47:29.228Z,10.50
2022-08-27T20:49:36.859Z,9.87
2022-08-27T20:51:53.522Z,9.57
2022-08-27T20:54:04.123Z,10.60
2022-08-27T20:56:09.227Z,10.10
2022-08-27T20:58:29.787Z,9.97
2022-08-27T21:00:34.627Z,8.90
2022-08-27T21:02:38.062Z,10.30
2022-08-27T21:04:48.460Z,9.50
2022-08-27T21:06:51.761Z,8.80
2022-08-27T21:08:56.333Z,9.43
2022-08-27T21:11:00.645Z,9.80
2022-08-27T21:13:07.297Z,11.00
2022-08-27T21:15:13.726Z,9.73
2022-08-27T21:17:17.221Z,8.27
2022-08-27T21:19:20.565Z,8.83
2022-08-27T21:21:25.328Z,10.13
2022-08-27T21:23:29.341Z,9.40
2022-08-27T21:25:32.732Z,9.07
2022-08-27T21:27:36.392Z,10.20
2022-08-27T21:29:40.748Z,10.37
2022-08-27T21:31:44.294Z,11.70
2022-08-27T21:33:47.942Z,9.30
2022-08-27T21:35:51.158Z,12.03
2022-08-27T21:37:56.275Z,10.63
2022-08-27T21:39:59.619Z,9.37
2022-08-27T21:42:03.079Z,9.50
2022-08-27T21:44:07.183Z,10.50
2022-08-27T21:46:10.591Z,8.53
2022-08-27T21:48:14.166Z,9.20
2022-08-27T21:50:17.701Z,11.57
2022-08-27T21:52:23.860Z,10.90
2022-08-27T21:54:29.536Z,10.37
2022-08-27T21:56:34.797Z,8.10
2022-08-27T21:58:38.722Z,8.20
2022-08-27T22:00:44.997Z,9.40
2022-08-27T22:02:48.767Z,9.77
2022-08-27T22:04:52.543Z,11.60
2022-08-27T22:06:55.960Z,12.50
2022-08-27T22:08:59.432Z,10.07
2022-08-27T22:11:05.034Z,10.27
2022-08-27T22:13:08.657Z,10.80
2022-08-27T22:15:13.097Z,13.20
2022-08-27T22:17:16.857Z,13.07
2022-08-27T22:19:20.385Z,10.73
2022-08-27T22:21:24.404Z,10.20
2022-08-27T22:23:28.529Z,11.33
2022-08-27T22:25:32.419Z,13.57
2022-08-27T22:27:37.439Z,11.87
2022-08-27T22:29:40.842Z,14.10
2022-08-27T22:31:44.404Z,14.27
2022-08-27T22:33:48.341Z,16.07
2022-08-27T22:35:51.802Z,16.37
2022-08-27T22:37:55.211Z,15.37
2022-08-27T22:40:00.377Z,15.93
2022-08-27T22:42:05.598Z,13.53
2022-08-27T22:44:10.745Z,13.07
2022-08-27T22:46:14.142Z,13.23
2022-08-27T22:48:17.916Z,14.73
2022-08-27T22:50:22.046Z,13.53
2022-08-27T22:52:28.091Z,12.67
2022-08-27T22:54:31.873Z,14.43
2022-08-27T22:56:35.891Z,13.90
2022-08-27T22:58:40.700Z,13.17
2022-08-27T23:00:52.392Z,12.83
2022-08-27T23:02:56.700Z,13.43
2022-08-27T23:05:02.521Z,12.73
2022-08-27T23:07:09.330Z,14.30
2022-08-27T23:09:12.949Z,12.87
2022-08-27T23:11:18.488Z,13.03
2022-08-27T23:13:24.522Z,14.20
2022-08-27T23:15:29.875Z,13.37
2022-08-27T23:17:34.929Z,12.43
2022-08-27T23:19:38.521Z,14.37
2022-08-27T23:21:42.108Z,13.80
2022-08-27T23:23:45.503Z,13.77
2022-08-27T23:26:07.616Z,15.57
2022-08-27T23:28:14.356Z,14.43
2022-08-27T23:30:21.006Z,14.73
2022-08-27T23:32:26.394Z,14.13
2022-08-27T23:34:32.071Z,13.17
2022-08-27T23:36:35.743Z,15.47
2022-08-27T23:38:39.557Z,14.87
2022-08-27T23:40:44.950Z,13.83
2022-08-27T23:42:49.539Z,14.90
2022-08-27T23:44:52.983Z,13.77
2022-08-27T23:46:56.458Z,14.17
2022-08-27T23:48:59.944Z,14.40
2022-08-27T23:51:04.912Z,14.30
2022-08-27T23:53:12.609Z,14.43
2022-08-27T23:55:16.422Z,14.47
2022-08-27T23:57:20.215Z,11.80
2022-08-27T23:59:26.591Z,12.83
